Time;durP1;ratioP1;P1;durP2;ratioP2;P2;SDS_P1;SDS_P2;PMS_P1;PMS_P2;Temp;Humidity;BMP_temperature;BMP_pressure;BME280_temperature;BME280_humidity;BME280_pressure;Samples;Min_cycle;Max_cycle;Signal;HPM_P1;HPM_P2
2022/07/16 04:01:34;;;;;;;19.03;17.83;;;14.60;99.90;;;;;;5032680;23;20495;-74
2022/07/16 04:04:00;;;;;;;17.07;16.07;;;14.60;99.90;;;;;;4980794;28;20459;-74
2022/07/16 04:06:27;;;;;;;16.73;15.67;;;14.60;99.90;;;;;;4974016;28;21068;-74
2022/07/16 04:08:54;;;;;;;17.00;16.00;;;14.60;99.90;;;;;;4984417;28;20845;-74
2022/07/16 04:11:20;;;;;;;16.63;15.33;;;14.60;99.90;;;;;;4974153;28;20487;-74
2022/07/16 04:13:47;;;;;;;17.00;15.80;;;14.80;99.90;;;;;;4974866;28;20456;-75
2022/07/16 04:16:14;;;;;;;16.83;15.63;;;14.80;99.90;;;;;;4974276;28;20452;-73
2022/07/16 04:18:42;;;;;;;17.60;16.40;;;15.00;99.90;;;;;;4974187;28;20821;-74
2022/07/16 04:21:09;;;;;;;17.40;16.40;;;15.00;99.90;;;;;;4974520;28;20459;-75
2022/07/16 04:23:36;;;;;;;16.20;15.10;;;15.00;99.90;;;;;;4974613;28;20473;-74
2022/07/16 04:26:03;;;;;;;16.33;15.40;;;15.10;99.90;;;;;;4974538;28;20452;-74
2022/07/16 04:28:30;;;;;;;17.13;16.13;;;15.20;99.90;;;;;;4974366;28;20456;-74
2022/07/16 04:30:56;;;;;;;16.93;15.60;;;15.10;99.90;;;;;;4974289;28;20498;-74
2022/07/16 04:33:23;;;;;;;17.00;15.93;;;15.00;99.90;;;;;;4974878;28;20456;-75
2022/07/16 04:35:51;;;;;;;17.00;15.90;;;15.00;99.90;;;;;;4974163;28;20459;-75
2022/07/16 04:38:18;;;;;;;15.90;14.80;;;15.20;99.90;;;;;;4974430;28;20788;-74
2022/07/16 04:40:45;;;;;;;15.63;14.90;;;15.60;99.90;;;;;;4974226;28;20814;-74
2022/07/16 04:43:12;;;;;;;16.00;15.00;;;16.00;99.90;;;;;;4981197;28;20462;-75
2022/07/16 04:45:39;;;;;;;17.87;16.03;;;16.40;99.90;;;;;;4990559;28;20458;-76
2022/07/16 04:48:06;;;;;;;17.33;16.00;;;16.70;99.90;;;;;;4991330;28;20462;-75
2022/07/16 04:50:33;;;;;;;15.83;14.33;;;17.00;99.90;;;;;;4990359;28;20522;-74
2022/07/16 04:53:01;;;;;;;16.27;15.03;;;17.20;99.90;;;;;;4992365;28;20463;-74
2022/07/16 04:55:28;;;;;;;17.23;15.80;;;17.50;99.90;;;;;;4992997;28;20465;-72
2022/07/16 04:57:55;;;;;;;16.27;15.17;;;17.80;99.90;;;;;;4992991;28;20447;-73
2022/07/16 05:00:22;;;;;;;17.93;16.73;;;17.90;99.90;;;;;;4993001;28;21013;-74
2022/07/16 05:02:57;;;;;;;16.20;15.20;;;18.00;99.90;;;;;;4993310;28;20451;-74
2022/07/16 05:05:25;;;;;;;16.80;15.80;;;18.30;99.90;;;;;;4992923;28;20450;-74
2022/07/16 05:07:51;;;;;;;16.27;15.37;;;18.40;99.90;;;;;;4987492;28;20494;-75
2022/07/16 05:10:20;;;;;;;14.87;13.97;;;18.60;99.90;;;;;;4963877;28;20496;-75
2022/07/16 05:12:47;;;;;;;16.17;15.00;;;18.70;99.90;;;;;;4954439;29;20460;-74
2022/07/16 05:15:14;;;;;;;14.80;13.90;;;18.90;99.90;;;;;;4953372;29;20447;-74
2022/07/16 05:17:41;;;;;;;15.60;14.80;;;19.10;99.90;;;;;;4954039;29;20479;-74
2022/07/16 05:20:09;;;;;;;16.80;15.70;;;19.30;99.90;;;;;;4953966;29;20456;-75
2022/07/16 05:22:35;;;;;;;17.63;16.73;;;19.50;99.90;;;;;;4954174;29;20449;-75
2022/07/16 05:25:02;;;;;;;17.20;16.10;;;19.60;99.90;;;;;;4954379;29;20463;-73
2022/07/16 05:27:31;;;;;;;17.50;16.60;;;19.60;99.90;;;;;;4953407;29;20449;-74
2022/07/16 05:29:57;;;;;;;15.17;13.83;;;19.80;99.70;;;;;;4953985;29;20495;-74
2022/07/16 05:32:24;;;;;;;16.80;15.80;;;20.10;98.70;;;;;;4953851;29;20456;-75
2022/07/16 05:34:51;;;;;;;16.90;15.50;;;20.30;97.90;;;;;;4954054;29;20830;-76
2022/07/16 05:37:17;;;;;;;14.93;14.07;;;20.50;97.30;;;;;;4954710;29;20476;-75
2022/07/16 05:39:44;;;;;;;16.23;15.00;;;20.90;96.80;;;;;;4954148;29;20460;-76
2022/07/16 05:42:11;;;;;;;18.33;16.50;;;21.10;96.00;;;;;;4953932;29;20504;-75
2022/07/16 05:44:39;;;;;;;15.23;13.93;;;21.30;95.60;;;;;;4953832;29;20456;-75
2022/07/16 05:47:06;;;;;;;16.10;15.00;;;21.80;94.70;;;;;;4953747;29;20453;-75
2022/07/16 05:49:33;;;;;;;15.37;13.97;;;22.10;93.60;;;;;;4953888;29;20453;-75
2022/07/16 05:52:00;;;;;;;16.00;14.93;;;22.20;93.20;;;;;;4953512;29;20490;-74
2022/07/16 05:54:27;;;;;;;15.23;14.40;;;22.30;93.20;;;;;;4953567;29;20969;-73
2022/07/16 05:56:54;;;;;;;16.37;15.27;;;22.40;92.00;;;;;;4954022;29;20457;-75
2022/07/16 05:59:20;;;;;;;16.33;15.00;;;22.50;91.70;;;;;;4953225;29;21021;-75
2022/07/16 06:01:48;;;;;;;14.70;14.00;;;22.60;91.50;;;;;;4953974;29;20456;-75
2022/07/16 06:04:15;;;;;;;15.87;14.40;;;22.70;91.10;;;;;;4954046;29;20458;-74
2022/07/16 06:06:42;;;;;;;15.40;14.50;;;22.70;91.10;;;;;;4953347;29;20883;-76
2022/07/16 06:09:08;;;;;;;14.90;13.90;;;22.60;91.00;;;;;;4955371;28;20472;-76
2022/07/16 06:11:35;;;;;;;15.00;14.10;;;22.80;90.60;;;;;;4962705;28;20499;-75
2022/07/16 06:14:03;;;;;;;15.57;14.70;;;23.40;89.80;;;;;;4954198;29;20460;-76
2022/07/16 06:16:30;;;;;;;15.00;14.20;;;23.80;88.40;;;;;;4954469;29;20461;-80
2022/07/16 06:18:58;;;;;;;15.93;14.70;;;24.30;85.00;;;;;;4954078;28;20544;-77
2022/07/16 06:21:24;;;;;;;13.68;12.88;;;24.80;82.60;;;;;;4952627;29;20454;-77
2022/07/16 06:23:51;;;;;;;17.20;16.10;;;25.10;81.10;;;;;;4953471;29;20671;-75
2022/07/16 06:26:18;;;;;;;15.00;14.10;;;25.40;78.60;;;;;;4953315;29;20444;-74
2022/07/16 06:28:44;;;;;;;15.57;14.40;;;25.70;77.30;;;;;;4953557;29;20939;-75
2022/07/16 06:31:11;;;;;;;15.57;14.60;;;25.90;74.80;;;;;;4953177;29;20488;-76
2022/07/16 06:33:38;;;;;;;14.33;13.63;;;26.30;73.80;;;;;;4953829;29;20452;-76
2022/07/16 06:36:06;;;;;;;14.70;13.90;;;26.40;71.00;;;;;;4954181;29;20945;-77
2022/07/16 06:38:33;;;;;;;15.23;14.07;;;26.50;67.20;;;;;;4954897;29;20448;-77
2022/07/16 06:41:00;;;;;;;14.50;13.70;;;26.20;68.50;;;;;;4953939;29;20464;-77
2022/07/16 06:43:27;;;;;;;14.20;13.60;;;26.30;67.40;;;;;;4953974;29;20449;-75
2022/07/16 06:45:53;;;;;;;14.10;13.30;;;26.70;63.30;;;;;;4954371;29;20851;-76
2022/07/16 06:48:20;;;;;;;14.17;13.33;;;26.70;63.40;;;;;;4952295;29;20461;-76
2022/07/16 06:50:47;;;;;;;15.10;14.07;;;26.60;63.60;;;;;;4953638;29;20492;-74
2022/07/16 06:53:15;;;;;;;14.00;13.30;;;26.70;63.50;;;;;;4953225;29;20821;-74
2022/07/16 06:55:41;;;;;;;14.57;13.77;;;26.80;63.20;;;;;;4953466;29;20448;-75
2022/07/16 06:58:09;;;;;;;14.47;13.40;;;26.80;62.10;;;;;;4953471;29;20476;-76
2022/07/16 07:00:35;;;;;;;15.37;14.53;;;27.20;60.00;;;;;;4953134;29;20516;-75
2022/07/16 07:03:02;;;;;;;14.27;13.57;;;27.70;58.60;;;;;;4952718;29;20456;-75
2022/07/16 07:08:18;;;;;;;14.80;13.93;;;28.40;57.10;;;;;;4935011;29;20463;-75
2022/07/16 07:10:45;;;;;;;15.30;14.37;;;28.10;57.60;;;;;;4952753;29;20514;-76
2022/07/16 07:13:12;;;;;;;15.00;14.30;;;28.60;58.20;;;;;;4969147;28;20471;-75
2022/07/16 07:15:38;;;;;;;14.93;14.23;;;29.20;56.90;;;;;;4987262;28;20462;-76
2022/07/16 07:18:05;;;;;;;14.20;13.60;;;29.50;54.10;;;;;;4973946;28;20941;-76
2022/07/16 07:20:32;;;;;;;16.00;15.10;;;29.80;54.80;;;;;;4974648;28;20466;-75
2022/07/16 07:22:58;;;;;;;16.67;15.70;;;29.80;55.10;;;;;;4990929;28;20476;-74
2022/07/16 07:25:27;;;;;;;16.20;15.00;;;29.90;53.40;;;;;;4990449;28;20458;-73
2022/07/16 07:27:54;;;;;;;16.70;15.30;;;29.90;51.80;;;;;;4990966;28;20459;-76
2022/07/16 07:30:20;;;;;;;15.23;14.53;;;29.90;51.10;;;;;;4979314;28;20883;-75
2022/07/16 07:32:47;;;;;;;16.10;15.00;;;30.40;51.40;;;;;;4975636;28;20463;-74
2022/07/16 07:35:14;;;;;;;15.87;14.70;;;30.40;51.50;;;;;;4975403;28;20459;-74
2022/07/16 07:37:40;;;;;;;15.00;14.33;;;30.20;50.40;;;;;;4975282;28;20569;-73
2022/07/16 07:40:08;;;;;;;14.87;14.10;;;29.90;50.50;;;;;;4975162;28;20451;-75
2022/07/16 07:42:36;;;;;;;15.23;14.17;;;30.10;50.90;;;;;;4974438;28;20972;-74
2022/07/16 07:45:04;;;;;;;16.17;15.17;;;30.50;49.70;;;;;;4974181;28;20510;-74
2022/07/16 07:47:31;;;;;;;15.77;14.90;;;30.50;49.00;;;;;;4973916;28;20959;-74
2022/07/16 07:49:58;;;;;;;15.43;14.53;;;30.40;49.50;;;;;;4973767;28;20490;-72
2022/07/16 07:52:25;;;;;;;16.30;15.50;;;30.40;50.00;;;;;;4973744;28;20851;-72
2022/07/16 07:54:52;;;;;;;15.00;14.30;;;31.10;48.90;;;;;;4974026;28;20448;-73
2022/07/16 07:57:18;;;;;;;15.10;14.30;;;31.80;47.20;;;;;;4974106;28;20452;-75
2022/07/16 07:59:46;;;;;;;15.43;14.20;;;32.40;46.10;;;;;;4973441;28;20498;-72
2022/07/16 08:02:13;;;;;;;14.30;13.60;;;32.40;45.60;;;;;;4973702;28;20456;-73
2022/07/16 08:04:40;;;;;;;14.00;13.40;;;32.40;45.10;;;;;;4973670;28;20814;-72
2022/07/16 08:07:06;;;;;;;15.17;14.50;;;32.30;45.40;;;;;;4974005;28;20467;-73
2022/07/16 08:09:33;;;;;;;14.60;14.00;;;32.00;45.30;;;;;;4973867;28;20840;-73
2022/07/16 08:12:00;;;;;;;14.40;13.77;;;32.20;44.70;;;;;;4973382;28;20851;-74
2022/07/16 08:14:27;;;;;;;15.23;14.33;;;32.50;43.40;;;;;;4973408;28;20455;-72
2022/07/16 08:16:55;;;;;;;15.47;14.67;;;32.50;43.80;;;;;;4973494;28;20462;-72
2022/07/16 08:19:22;;;;;;;14.03;13.47;;;32.90;42.80;;;;;;4973704;28;20459;-72
2022/07/16 08:21:48;;;;;;;15.50;14.73;;;32.30;43.60;;;;;;4973805;28;20448;-72
2022/07/16 08:26:59;;;;;;;15.00;14.27;;;32.00;43.10;;;;;;4973336;28;20512;-73
2022/07/16 08:29:26;;;;;;;13.97;13.17;;;32.50;41.20;;;;;;4973158;28;20459;-75
2022/07/16 08:31:54;;;;;;;14.73;13.90;;;32.10;40.60;;;;;;4973026;28;20847;-72
2022/07/16 08:34:23;;;;;;;15.40;14.40;;;31.50;41.40;;;;;;4973174;28;20458;-73
2022/07/16 08:36:50;;;;;;;14.40;13.80;;;31.70;42.60;;;;;;4973175;28;20467;-74
2022/07/16 08:39:16;;;;;;;14.03;13.40;;;31.60;42.90;;;;;;4973020;28;20478;-72
2022/07/16 08:41:44;;;;;;;14.10;13.17;;;30.80;42.90;;;;;;4971930;28;20443;-73
2022/07/16 08:44:12;;;;;;;15.33;14.30;;;30.20;44.60;;;;;;4972850;28;20953;-73
2022/07/16 08:46:38;;;;;;;13.10;12.60;;;29.40;45.20;;;;;;4973013;28;20463;-73
2022/07/16 08:49:07;;;;;;;13.10;12.50;;;29.30;45.40;;;;;;4973193;28;20447;-73
2022/07/16 08:51:35;;;;;;;12.93;12.30;;;29.20;45.60;;;;;;4973001;28;20483;-72
2022/07/16 08:54:07;;;;;;;14.27;13.57;;;29.70;44.30;;;;;;4973022;28;20463;-72
2022/07/16 08:56:34;;;;;;;14.13;13.47;;;30.30;43.00;;;;;;4973039;28;20801;-73
2022/07/16 08:59:02;;;;;;;13.50;12.90;;;30.50;41.60;;;;;;4972690;28;20482;-73
2022/07/16 09:01:30;;;;;;;14.10;13.40;;;31.00;41.60;;;;;;4982189;28;20483;-73
2022/07/16 09:03:57;;;;;;;14.10;13.40;;;31.80;40.40;;;;;;4969591;28;20527;-73
2022/07/16 09:06:25;;;;;;;14.30;13.40;;;31.60;40.10;;;;;;4960417;28;20476;-73
2022/07/16 09:08:52;;;;;;;14.63;14.03;;;31.60;39.80;;;;;;4969997;28;20451;-73
2022/07/16 09:11:21;;;;;;;15.50;14.70;;;32.20;39.30;;;;;;4970713;28;20515;-72
2022/07/16 09:14:05;;;;;;;14.87;13.87;;;32.00;38.80;;;;;;4970570;28;20466;-73
2022/07/16 09:16:33;;;;;;;13.93;13.30;;;31.30;38.80;;;;;;4968138;28;20451;-73
2022/07/16 09:19:10;;;;;;;13.43;12.83;;;31.00;39.90;;;;;;4969962;28;20446;-72
2022/07/16 09:21:58;;;;;;;14.47;13.77;;;30.80;40.50;;;;;;4968269;28;20498;-72
2022/07/16 09:24:34;;;;;;;13.20;12.63;;;30.80;41.00;;;;;;4969042;28;20447;-72
2022/07/16 09:27:06;;;;;;;12.90;12.40;;;31.10;39.80;;;;;;4969690;28;20447;-73
2022/07/16 09:29:43;;;;;;;14.13;13.43;;;31.60;39.30;;;;;;4967684;28;20440;-73
2022/07/16 09:32:10;;;;;;;13.30;12.77;;;31.80;38.70;;;;;;4966982;28;20475;-73
2022/07/16 09:34:37;;;;;;;14.90;14.23;;;32.80;38.60;;;;;;4969596;28;20810;-74
2022/07/16 09:37:07;;;;;;;14.00;13.40;;;33.20;37.70;;;;;;4969628;28;20460;-74
2022/07/16 09:39:35;;;;;;;14.43;13.87;;;32.70;37.10;;;;;;4966150;28;20475;-72
2022/07/16 09:42:02;;;;;;;14.30;13.60;;;32.50;37.20;;;;;;4969813;28;20444;-73
2022/07/16 09:44:32;;;;;;;13.97;13.07;;;32.10;37.70;;;;;;4966952;28;20476;-73
2022/07/16 09:47:05;;;;;;;13.90;13.10;;;32.30;37.90;;;;;;4969462;28;20451;-73
2022/07/16 09:49:34;;;;;;;14.03;13.43;;;32.00;38.80;;;;;;4967041;28;20452;-72
2022/07/16 09:52:01;;;;;;;13.70;13.00;;;31.70;38.60;;;;;;4969749;28;20530;-72
2022/07/16 09:54:31;;;;;;;13.20;12.70;;;31.80;38.60;;;;;;4968767;28;20447;-72
2022/07/16 09:57:09;;;;;;;14.50;13.80;;;32.20;38.20;;;;;;4968038;28;20889;-72
2022/07/16 09:59:37;;;;;;;15.23;14.03;;;32.10;37.60;;;;;;4969570;28;20471;-73
2022/07/16 10:02:04;;;;;;;13.87;13.27;;;32.30;36.90;;;;;;4969583;28;20443;-73
2022/07/16 10:04:31;;;;;;;13.13;12.63;;;31.70;37.20;;;;;;4969777;28;20447;-74
2022/07/16 10:06:58;;;;;;;13.53;13.03;;;31.40;38.10;;;;;;4969773;28;21019;-73
2022/07/16 10:09:25;;;;;;;12.40;11.90;;;31.30;37.60;;;;;;4969044;28;20479;-72
2022/07/16 10:11:55;;;;;;;13.50;13.00;;;30.70;38.20;;;;;;4971443;28;20494;-73
2022/07/16 10:14:22;;;;;;;14.20;13.57;;;31.00;38.70;;;;;;4970155;28;20447;-73
2022/07/16 10:16:49;;;;;;;13.50;12.70;;;31.60;38.30;;;;;;4970349;28;20444;-73
2022/07/16 10:19:16;;;;;;;14.80;14.20;;;32.40;38.30;;;;;;4970063;28;20444;-74
2022/07/16 10:22:17;;;;;;;13.70;13.00;;;33.00;36.20;;;;;;4969830;28;21097;-73
2022/07/16 10:24:45;;;;;;;13.73;13.23;;;31.90;37.00;;;;;;4965620;28;20508;-73
2022/07/16 10:27:28;;;;;;;13.53;13.03;;;31.80;37.50;;;;;;4971083;28;20456;-73
2022/07/16 10:30:16;;;;;;;13.83;13.23;;;31.50;37.80;;;;;;4971123;28;20462;-73
2022/07/16 10:33:10;;;;;;;13.50;12.80;;;31.10;38.00;;;;;;4970244;28;20483;-73
2022/07/16 10:35:38;;;;;;;13.70;13.20;;;31.30;38.50;;;;;;4968861;28;20448;-73
2022/07/16 10:38:05;;;;;;;14.53;13.93;;;31.30;38.30;;;;;;4972980;28;20499;-73
2022/07/16 10:40:33;;;;;;;13.50;12.93;;;31.30;37.50;;;;;;4969536;28;20484;-73
2022/07/16 10:43:15;;;;;;;13.17;12.63;;;31.70;36.90;;;;;;4969472;28;20447;-73
2022/07/16 10:45:55;;;;;;;14.77;14.17;;;32.50;36.40;;;;;;4966451;28;20930;-72
2022/07/16 10:48:23;;;;;;;14.20;13.60;;;32.70;36.60;;;;;;4969044;28;20447;-74
2022/07/16 10:51:15;;;;;;;14.43;13.73;;;33.50;35.70;;;;;;4969578;28;20547;-74
2022/07/16 10:54:29;;;;;;;13.17;12.67;;;33.50;34.90;;;;;;4969330;28;20973;-73
2022/07/16 10:56:58;;;;;;;14.63;14.03;;;34.10;34.60;;;;;;4968354;28;20482;-72
2022/07/16 10:59:28;;;;;;;13.60;13.00;;;33.90;33.60;;;;;;4966214;28;20463;-73
2022/07/16 11:01:57;;;;;;;12.90;12.40;;;32.90;34.40;;;;;;4969823;28;20642;-74
2022/07/16 11:04:33;;;;;;;13.37;12.97;;;32.60;35.00;;;;;;4971194;28;20465;-74
2022/07/16 11:07:00;;;;;;;13.63;13.13;;;32.90;35.00;;;;;;4974496;28;20451;-74
2022/07/16 11:09:29;;;;;;;13.43;12.93;;;33.50;34.60;;;;;;4973906;28;20448;-74
2022/07/16 11:11:56;;;;;;;14.10;13.00;;;33.00;34.30;;;;;;4973740;28;20491;-75
2022/07/16 11:14:30;;;;;;;14.43;13.63;;;32.80;35.20;;;;;;4973838;28;20823;-74
2022/07/16 11:16:58;;;;;;;14.30;13.70;;;32.60;35.50;;;;;;4973938;28;20462;-73
2022/07/16 11:19:26;;;;;;;13.30;12.23;;;32.20;35.50;;;;;;4973916;28;20809;-72
2022/07/16 11:21:54;;;;;;;13.40;12.80;;;31.60;36.10;;;;;;4973829;28;20964;-74
2022/07/16 11:24:21;;;;;;;13.93;13.33;;;32.30;35.60;;;;;;4973956;28;20612;-72
2022/07/16 11:26:48;;;;;;;13.47;12.93;;;31.60;35.60;;;;;;4971534;28;20487;-74
2022/07/16 11:29:15;;;;;;;13.40;12.80;;;31.30;35.90;;;;;;4972451;28;20537;-72
2022/07/16 11:31:43;;;;;;;13.90;13.30;;;31.40;36.10;;;;;;4973751;28;20490;-73
2022/07/16 11:34:12;;;;;;;13.20;12.70;;;31.80;35.10;;;;;;4973713;28;20451;-74
2022/07/16 11:36:41;;;;;;;13.80;13.30;;;31.70;35.50;;;;;;4978416;28;20460;-75
2022/07/16 11:39:09;;;;;;;14.20;13.60;;;32.00;34.40;;;;;;4979033;28;20447;-74
2022/07/16 11:41:38;;;;;;;13.77;13.17;;;31.80;34.70;;;;;;4991041;28;20454;-74
2022/07/16 11:44:09;;;;;;;13.00;12.43;;;31.40;35.50;;;;;;4976563;28;20470;-74
2022/07/16 11:46:44;;;;;;;13.40;12.90;;;31.70;34.90;;;;;;4977484;28;20506;-75
2022/07/16 11:49:12;;;;;;;13.43;12.60;;;31.70;35.00;;;;;;4974052;28;20451;-74
2022/07/16 11:51:40;;;;;;;14.17;13.57;;;32.50;33.80;;;;;;4973820;28;20460;-74
2022/07/16 11:54:07;;;;;;;15.60;14.80;;;32.90;33.90;;;;;;4988594;28;20461;-74
2022/07/16 11:56:36;;;;;;;13.40;12.90;;;33.40;33.30;;;;;;4993562;28;20451;-74
2022/07/16 11:59:03;;;;;;;13.30;12.83;;;32.80;33.30;;;;;;4992783;28;20469;-74
2022/07/16 12:01:38;;;;;;;13.87;13.27;;;33.00;33.60;;;;;;4993034;28;20491;-74
2022/07/16 12:04:06;;;;;;;12.63;12.13;;;33.70;32.40;;;;;;4993346;28;20457;-74
2022/07/16 12:06:33;;;;;;;14.00;13.50;;;32.70;32.90;;;;;;4993082;28;20446;-75
2022/07/16 12:08:59;;;;;;;13.93;13.43;;;32.30;33.70;;;;;;4992832;28;20453;-74
2022/07/16 12:11:31;;;;;;;13.67;13.17;;;32.50;33.50;;;;;;4975947;28;20450;-74
2022/07/16 12:13:58;;;;;;;13.10;12.60;;;32.40;34.20;;;;;;4973364;28;20933;-74
2022/07/16 12:16:25;;;;;;;13.40;12.90;;;32.90;33.70;;;;;;4972924;28;20460;-74
2022/07/16 12:19:03;;;;;;;13.27;12.57;;;33.40;33.50;;;;;;4973434;28;20451;-72
2022/07/16 12:21:33;;;;;;;13.87;13.17;;;33.60;32.60;;;;;;4973475;28;20854;-75
2022/07/16 12:24:01;;;;;;;12.93;12.33;;;33.80;32.90;;;;;;4973155;28;20509;-74
2022/07/16 12:26:32;;;;;;;12.80;12.40;;;34.10;32.50;;;;;;4973088;28;20463;-75
2022/07/16 12:28:59;;;;;;;13.13;12.60;;;33.60;33.40;;;;;;4973088;28;20820;-74
2022/07/16 12:31:28;;;;;;;11.97;11.57;;;33.60;33.30;;;;;;4973162;28;20462;-74
2022/07/16 12:33:56;;;;;;;13.17;12.57;;;33.20;34.10;;;;;;4972820;28;20487;-75
2022/07/16 12:36:31;;;;;;;13.57;12.73;;;32.90;34.60;;;;;;4973181;28;20464;-74
2022/07/16 12:39:02;;;;;;;12.90;12.40;;;31.90;35.60;;;;;;4973125;28;20455;-74
2022/07/16 12:41:30;;;;;;;13.40;12.80;;;31.80;36.20;;;;;;4972971;28;20551;-74
2022/07/16 12:44:00;;;;;;;12.67;12.17;;;32.10;35.60;;;;;;4976613;28;20473;-74
2022/07/16 12:46:30;;;;;;;12.43;11.90;;;32.80;35.40;;;;;;4992406;28;20937;-73
2022/07/16 12:48:59;;;;;;;12.27;11.87;;;33.00;34.90;;;;;;4992624;28;20470;-73
2022/07/16 12:51:28;;;;;;;12.20;11.70;;;32.70;34.60;;;;;;4992529;28;20458;-74
2022/07/16 12:53:57;;;;;;;13.13;12.53;;;32.40;35.40;;;;;;4991998;28;20490;-73
2022/07/16 12:59:09;;;;;;;12.03;11.63;;;31.90;36.00;;;;;;4979911;28;20523;-73
2022/07/16 13:01:36;;;;;;;12.93;12.33;;;31.70;36.20;;;;;;4972491;28;20479;-74
2022/07/16 13:04:04;;;;;;;12.43;12.03;;;32.10;36.10;;;;;;4970801;28;20540;-74
2022/07/16 13:06:32;;;;;;;12.73;12.23;;;32.90;34.90;;;;;;4972754;28;20495;-74
2022/07/16 13:09:00;;;;;;;12.70;12.20;;;32.20;34.80;;;;;;4972408;28;20447;-74
2022/07/16 13:11:27;;;;;;;12.57;12.07;;;31.50;35.90;;;;;;4972386;28;20793;-74
2022/07/16 13:13:55;;;;;;;12.60;12.10;;;32.00;36.20;;;;;;4972144;28;20494;-74
2022/07/16 13:16:23;;;;;;;12.77;12.20;;;32.10;35.80;;;;;;4972419;28;20455;-74
2022/07/16 13:18:51;;;;;;;12.30;11.63;;;31.70;35.80;;;;;;4972712;28;20467;-75
2022/07/16 13:21:19;;;;;;;12.23;11.73;;;31.90;36.10;;;;;;4972277;28;20460;-74
2022/07/16 13:23:47;;;;;;;11.93;11.47;;;32.40;35.80;;;;;;4978604;28;20439;-74
2022/07/16 13:26:16;;;;;;;12.70;12.20;;;32.30;35.80;;;;;;4974250;28;20790;-74
2022/07/16 13:28:43;;;;;;;12.93;12.43;;;32.60;35.10;;;;;;4990858;28;20463;-75
2022/07/16 13:31:11;;;;;;;12.97;12.47;;;32.80;34.30;;;;;;4986228;28;20455;-74
2022/07/16 13:33:38;;;;;;;12.57;12.03;;;32.40;35.10;;;;;;4971918;28;21126;-75
2022/07/16 13:36:09;;;;;;;13.30;12.80;;;31.70;35.60;;;;;;4972210;28;20452;-75
2022/07/16 13:38:37;;;;;;;12.50;12.00;;;32.10;35.40;;;;;;4972512;28;20910;-74
2022/07/16 13:41:03;;;;;;;13.23;12.70;;;32.80;34.70;;;;;;4988222;28;20447;-74
2022/07/16 13:43:31;;;;;;;13.23;12.70;;;33.10;34.20;;;;;;4991190;28;20454;-74
2022/07/16 13:45:58;;;;;;;12.50;11.90;;;33.10;33.60;;;;;;4991321;28;20463;-74
2022/07/16 13:48:25;;;;;;;12.33;11.83;;;32.50;33.90;;;;;;4991265;28;20454;-74
2022/07/16 13:50:52;;;;;;;12.03;11.53;;;32.10;34.70;;;;;;4991381;28;20447;-74
2022/07/16 13:53:19;;;;;;;12.23;11.77;;;31.80;35.40;;;;;;4991307;28;20828;-74
2022/07/16 13:55:45;;;;;;;13.57;12.87;;;31.40;35.90;;;;;;4990986;28;20443;-74
2022/07/16 13:58:14;;;;;;;13.27;12.40;;;31.00;37.20;;;;;;4973808;28;20467;-74
2022/07/16 14:00:44;;;;;;;12.60;11.90;;;30.80;37.00;;;;;;4971390;28;20479;-74
2022/07/16 14:03:12;;;;;;;12.67;12.07;;;30.60;36.90;;;;;;4971350;28;20479;-74
2022/07/16 14:05:39;;;;;;;12.90;12.40;;;30.70;37.10;;;;;;4971640;28;20463;-74
2022/07/16 14:08:06;;;;;;;12.70;12.20;;;30.90;37.00;;;;;;4971526;28;20451;-75
2022/07/16 14:10:33;;;;;;;10.93;10.53;;;30.90;36.90;;;;;;4971963;28;20485;-74
2022/07/16 14:13:00;;;;;;;12.17;11.57;;;30.90;36.90;;;;;;4971429;28;20494;-74
2022/07/16 14:15:29;;;;;;;13.27;12.70;;;31.50;35.90;;;;;;4971462;28;20459;-74
2022/07/16 14:17:58;;;;;;;12.20;11.70;;;31.70;35.00;;;;;;4971489;28;20559;-74
2022/07/16 14:20:25;;;;;;;12.80;12.30;;;32.00;35.30;;;;;;4971324;28;20455;-74
2022/07/16 14:22:52;;;;;;;13.27;12.10;;;31.90;35.00;;;;;;4971494;28;20811;-75
2022/07/16 14:25:19;;;;;;;12.83;12.33;;;31.80;35.50;;;;;;4971452;28;20459;-74
2022/07/16 14:27:45;;;;;;;14.03;13.13;;;31.70;35.50;;;;;;4971270;28;20459;-74
2022/07/16 14:30:12;;;;;;;11.30;10.70;;;31.80;35.60;;;;;;4971139;28;20961;-75
2022/07/16 14:32:40;;;;;;;12.80;12.00;;;31.60;35.60;;;;;;4951872;29;20495;-75
2022/07/16 14:35:09;;;;;;;11.10;10.60;;;31.70;35.60;;;;;;4952008;29;20874;-75
2022/07/16 14:37:36;;;;;;;11.77;11.30;;;31.80;36.00;;;;;;4951813;29;20452;-75
2022/07/16 14:40:03;;;;;;;13.00;12.40;;;31.60;36.20;;;;;;4955040;28;20480;-74
2022/07/16 14:42:30;;;;;;;12.70;12.10;;;31.50;36.40;;;;;;4956006;29;20475;-74
2022/07/16 14:44:57;;;;;;;12.90;12.30;;;31.80;36.60;;;;;;4955995;29;20455;-74
2022/07/16 14:47:24;;;;;;;14.13;13.17;;;31.30;36.50;;;;;;4955877;29;20451;-74
2022/07/16 14:49:50;;;;;;;14.30;13.60;;;30.60;37.70;;;;;;4956168;29;20456;-74
2022/07/16 14:52:18;;;;;;;13.87;13.27;;;29.80;37.90;;;;;;4955965;29;20456;-74
2022/07/16 14:54:45;;;;;;;11.87;11.33;;;29.60;39.10;;;;;;4955747;29;20452;-74
2022/07/16 14:57:12;;;;;;;11.80;11.20;;;29.50;39.00;;;;;;4955728;28;20480;-74
2022/07/16 14:59:39;;;;;;;12.37;11.87;;;29.40;39.90;;;;;;4955399;29;20480;-74
2022/07/16 15:02:05;;;;;;;13.23;12.50;;;29.60;39.40;;;;;;4955795;29;20452;-74
2022/07/16 15:04:32;;;;;;;14.07;13.50;;;29.90;39.20;;;;;;4955759;29;20453;-74
2022/07/16 15:06:59;;;;;;;13.00;12.27;;;29.90;39.50;;;;;;4955379;29;20962;-74
2022/07/16 15:09:27;;;;;;;14.20;13.50;;;29.80;39.90;;;;;;4955289;29;20463;-73
2022/07/16 15:11:53;;;;;;;12.40;11.90;;;29.10;40.10;;;;;;4955573;29;20448;-72
2022/07/16 15:14:20;;;;;;;13.00;12.40;;;28.50;41.60;;;;;;4955723;29;20492;-74
2022/07/16 15:16:47;;;;;;;12.20;11.70;;;28.00;42.00;;;;;;4955451;29;20958;-74
2022/07/16 15:19:13;;;;;;;12.37;11.37;;;27.70;42.90;;;;;;4955188;29;20452;-74
2022/07/16 15:21:40;;;;;;;12.10;11.60;;;27.30;43.30;;;;;;4955236;29;20452;-74
2022/07/16 15:24:07;;;;;;;12.40;11.90;;;27.00;43.30;;;;;;4955206;29;20456;-73
2022/07/16 15:26:35;;;;;;;12.43;11.83;;;26.90;43.80;;;;;;4955540;29;20456;-74
2022/07/16 15:29:02;;;;;;;11.57;11.07;;;26.70;43.80;;;;;;4955155;29;20938;-74
2022/07/16 15:31:29;;;;;;;11.60;11.00;;;26.60;44.00;;;;;;4964878;28;20462;-75
2022/07/16 15:33:55;;;;;;;10.60;10.10;;;26.70;44.20;;;;;;4974089;28;21039;-73
2022/07/16 15:36:22;;;;;;;11.40;11.00;;;26.70;44.40;;;;;;4974448;28;20455;-73
2022/07/16 15:38:51;;;;;;;12.33;11.50;;;26.60;44.30;;;;;;4974465;28;20498;-73
2022/07/16 15:41:18;;;;;;;11.10;10.60;;;26.50;44.60;;;;;;4974459;28;20813;-72
2022/07/16 15:43:46;;;;;;;11.07;10.57;;;26.40;45.00;;;;;;4973959;28;20463;-73
2022/07/16 15:46:13;;;;;;;11.47;11.00;;;26.40;45.20;;;;;;4973852;28;20456;-72
2022/07/16 15:48:40;;;;;;;11.60;11.03;;;26.40;45.20;;;;;;4974041;28;20455;-73
2022/07/16 15:51:07;;;;;;;10.77;10.17;;;26.40;44.90;;;;;;4973505;28;20957;-72
2022/07/16 15:53:34;;;;;;;11.93;11.37;;;26.40;45.20;;;;;;4973966;28;20479;-72
2022/07/16 15:56:01;;;;;;;11.60;11.10;;;26.20;44.70;;;;;;4973674;28;20452;-72
2022/07/16 15:58:28;;;;;;;11.67;11.17;;;26.10;45.00;;;;;;4971513;28;20845;-72
2022/07/16 16:00:56;;;;;;;11.70;11.20;;;26.30;45.20;;;;;;4973098;28;20483;-73
2022/07/16 16:03:23;;;;;;;12.33;11.50;;;26.30;44.70;;;;;;4973679;28;20463;-74
2022/07/16 16:05:49;;;;;;;11.80;11.33;;;26.30;44.90;;;;;;4973959;28;20459;-74
2022/07/16 16:08:17;;;;;;;11.73;11.23;;;26.40;44.70;;;;;;4973688;28;20490;-74
2022/07/16 16:10:45;;;;;;;10.93;10.53;;;26.40;44.60;;;;;;4973623;28;20452;-74
2022/07/16 16:13:12;;;;;;;11.00;10.40;;;26.50;44.80;;;;;;4973581;28;20491;-74
2022/07/16 16:15:39;;;;;;;11.23;10.83;;;26.60;45.10;;;;;;4973500;28;20977;-74
2022/07/16 16:18:12;;;;;;;11.00;10.50;;;26.60;44.80;;;;;;4973841;28;20542;-74
2022/07/16 16:20:40;;;;;;;11.50;11.10;;;26.40;44.90;;;;;;4973531;28;20455;-73
2022/07/16 16:23:07;;;;;;;11.00;10.40;;;26.40;45.20;;;;;;4973584;28;20459;-73
2022/07/16 16:25:33;;;;;;;12.00;11.50;;;26.30;44.90;;;;;;4973754;28;20451;-73
2022/07/16 16:28:00;;;;;;;12.10;11.40;;;26.20;45.40;;;;;;4973313;28;20455;-73
2022/07/16 16:30:27;;;;;;;11.30;10.60;;;26.20;45.50;;;;;;4974817;28;20825;-74
2022/07/16 16:32:54;;;;;;;11.70;11.10;;;26.10;45.50;;;;;;4992498;28;20461;-74
2022/07/16 16:35:22;;;;;;;11.57;11.07;;;26.10;45.30;;;;;;4992759;28;20937;-74
2022/07/16 16:37:49;;;;;;;11.50;11.00;;;26.00;45.60;;;;;;4992844;28;20932;-73
2022/07/16 16:40:15;;;;;;;10.73;10.33;;;26.10;45.50;;;;;;4992502;28;20466;-73
2022/07/16 16:42:42;;;;;;;11.27;10.87;;;26.10;45.60;;;;;;4992432;28;20455;-73